| time (UTC) | temp C | wind direction | speed KPH | gust KPH | rain 1hr cm | rain 24hr cm | rain mn cm | humidity % | barometer mb |
| 20260503220523 | 13 | 0.0 | 0.0 | 0.00 | 0.00 | 0.00 | 95 | ||
| 20260503215519 | 13 | 0.0 | 0.0 | 0.00 | 0.00 | 0.00 | 94 | ||
| 20260503214524 | 13 | 0.0 | 0.0 | 0.00 | 0.00 | 0.00 | 94 | ||
| 20260503213520 | 13 | 0.0 | 0.0 | 0.00 | 0.00 | 0.00 | 94 | ||
| 20260503212525 | 13 | 0.0 | 0.0 | 0.00 | 0.00 | 0.00 | 94 | ||
| 20260503211522 | 12 | 0.0 | 0.0 | 0.00 | 0.00 | 0.00 | 94 | ||
| 20260503210526 | 12 | 0.0 | 0.0 | 0.00 | 0.00 | 0.00 | 94 | ||
| 20260503205523 | 12 | 0.0 | 0.0 | 0.00 | 0.00 | 0.00 | 94 | ||
| 20260503204519 | 12 | 0.0 | 0.0 | 0.00 | 0.00 | 0.00 | 94 | ||
| 20260503203524 | 12 | 0.0 | 0.0 | 0.00 | 0.00 | 0.00 | 94 | ||
| 20260503202520 | 12 | 0.0 | 0.0 | 0.00 | 0.00 | 0.00 | 93 | ||
| 20260503201525 | 12 | 0.0 | 0.0 | 0.00 | 0.00 | 0.00 | 93 | ||
| 20260503200522 | 12 | 0.0 | 0.0 | 0.00 | 0.00 | 0.00 | 93 | ||
| 20260503195526 | 12 | 0.0 | 0.0 | 0.00 | 0.00 | 0.00 | 93 | ||
| 20260503194522 | 12 | 0.0 | 0.0 | 0.00 | 0.00 | 0.00 | 92 | ||
| 20260503193519 | 12 | 0.0 | 0.0 | 0.00 | 0.00 | 0.00 | 91 | ||
| 20260503192523 | 12 | 0.0 | 0.0 | 0.00 | 0.00 | 0.00 | 91 | ||
| 20260503191520 | 12 | 0.0 | 0.0 | 0.00 | 0.00 | 0.00 | 91 | ||
| 20260503190525 | 12 | 0.0 | 0.0 | 0.00 | 0.00 | 0.00 | 90 | ||
| 20260503185521 | 12 | 0.0 | 0.0 | 0.00 | 0.00 | 0.00 | 90 | ||
| 20260503184526 | 12 | 0.0 | 0.0 | 0.00 | 0.00 | 0.00 | 90 | ||
| 20260503183522 | 12 | 0.0 | 0.0 | 0.00 | 0.00 | 0.00 | 90 | ||
| 20260503182519 | 12 | 0.0 | 0.0 | 0.00 | 0.00 | 0.00 | 90 | ||
| 20260503181524 | 12 | 0.0 | 0.0 | 0.00 | 0.00 | 0.00 | 90 | ||
| 20260503180520 | 12 | 0.0 | 0.0 | 0.00 | 0.00 | 0.00 | 90 | ||
| 20260503175525 | 12 | 0.0 | 0.0 | 0.00 | 0.00 | 0.00 | 90 | ||
| 20260503174521 | 12 | 0.0 | 0.0 | 0.00 | 0.00 | 0.00 | 90 | ||
| 20260503173526 | 12 | 0.0 | 0.0 | 0.00 | 0.00 | 0.00 | 89 | ||
| 20260503172522 | 12 | 0.0 | 0.0 | 0.00 | 0.00 | 0.00 | 89 | ||
| 20260503171519 | 12 | 0.0 | 0.0 | 0.00 | 0.00 | 0.00 | 89 | ||
| 20260503170524 | 12 | 0.0 | 0.0 | 0.00 | 0.00 | 0.00 | 87 | ||
| 20260503150522 | 12 | 0.0 | 0.0 | 0.00 | 0.00 | 0.00 | 86 | ||
| 20260503130521 | 13 | 0.0 | 0.0 | 0.00 | 0.00 | 0.00 | 84 | ||
| 20260503110522 | 13 | 0.0 | 0.0 | 0.00 | 0.00 | 0.00 | 79 | ||
| 20260503081526 | 15 | 0.0 | 0.0 | 0.00 | 0.00 | 0.00 | 71 | ||
| 20260503080522 | 15 | 0.0 | 0.0 | 0.00 | 0.00 | 0.00 | 72 | ||
| 20260503072525 | 15 | 0.0 | 0.0 | 0.00 | 0.00 | 0.00 | 73 | ||
| 20260503071521 | 15 | 0.0 | 0.0 | 0.00 | 0.00 | 0.00 | 73 | ||
| 20260503070526 | 15 | 0.0 | 0.0 | 0.00 | 0.00 | 0.00 | 73 | ||
| 20260503054522 | 20 | 0.0 | 0.0 | 0.00 | 0.00 | 0.00 | 49 | ||
| 20260503053527 | 19 | 0.0 | 0.0 | 0.00 | 0.00 | 0.00 | 51 | ||
| 20260503052523 | 20 | 0.0 | 0.0 | 0.00 | 0.00 | 0.00 | 48 | ||
| 20260503051519 | 20 | 0.0 | 0.0 | 0.00 | 0.00 | 0.00 | 49 | ||
| 20260503050525 | 18 | 0.0 | 0.0 | 0.00 | 0.00 | 0.00 | 52 | ||
| 20260503045521 | 18 | 0.0 | 0.0 | 0.00 | 0.00 | 0.00 | 53 | ||
| 20260503044526 | 19 | 0.0 | 0.0 | 0.00 | 0.00 | 0.00 | 49 | ||
| 20260503043522 | 20 | 0.0 | 0.0 | 0.00 | 0.00 | 0.00 | 47 | ||
| 20260503042527 | 20 | 0.0 | 0.0 | 0.00 | 0.00 | 0.00 | 49 | ||
| 20260503041523 | 20 | 0.0 | 0.0 | 0.00 | 0.00 | 0.00 | 49 | ||
| 20260503040519 | 19 | 0.0 | 0.0 | 0.00 | 0.00 | 0.00 | 50 | ||
| 20260503035524 | 19 | 0.0 | 0.0 | 0.00 | 0.00 | 0.00 | 51 | ||
| 20260503034523 | 19 | 0.0 | 0.0 | 0.00 | 0.00 | 0.00 | 50 | ||
| 20260503033526 | 18 | 0.0 | 0.0 | 0.00 | 0.00 | 0.00 | 54 | ||
| 20260503032523 | 18 | 0.0 | 0.0 | 0.00 | 0.00 | 0.00 | 56 | ||
| 20260503031527 | 17 | 0.0 | 0.0 | 0.00 | 0.00 | 0.00 | 61 | ||
| 20260503030523 | 17 | 0.0 | 0.0 | 0.00 | 0.00 | 0.00 | 61 | ||
| 20260503025519 | 17 | 0.0 | 0.0 | 0.00 | 0.00 | 0.00 | 61 | ||
| 20260503024524 | 17 | 0.0 | 0.0 | 0.00 | 0.00 | 0.00 | 61 | ||
| 20260503023521 | 17 | 0.0 | 0.0 | 0.00 | 0.00 | 0.00 | 62 | ||
| 20260503022526 | 17 | 0.0 | 0.0 | 0.00 | 0.00 | 0.00 | 60 | ||
| 20260503021522 | 17 | 0.0 | 0.0 | 0.00 | 0.00 | 0.00 | 59 | ||
| 20260503020527 | 17 | 0.0 | 0.0 | 0.00 | 0.00 | 0.00 | 60 | ||
| 20260503015523 | 17 | 0.0 | 0.0 | 0.00 | 0.00 | 0.00 | 59 | ||
| 20260503014522 | 17 | 0.0 | 0.0 | 0.00 | 0.00 | 0.00 | 57 | ||
| 20260503013525 | 17 | 0.0 | 0.0 | 0.00 | 0.00 | 0.00 | 58 | ||
| 20260503012522 | 17 | 0.0 | 0.0 | 0.00 | 0.00 | 0.00 | 59 | ||
| 20260503011526 | 17 | 0.0 | 0.0 | 0.00 | 0.00 | 0.00 | 60 | ||
| 20260503010522 | 16 | 0.0 | 0.0 | 0.00 | 0.00 | 0.00 | 62 | ||
| 20260503005527 | 17 | 0.0 | 0.0 | 0.00 | 0.00 | 0.00 | 62 | ||
| 20260503004523 | 17 | 0.0 | 0.0 | 0.00 | 0.00 | 0.00 | 61 | ||
| 20260503003519 | 17 | 0.0 | 0.0 | 0.00 | 0.00 | 0.00 | 61 | ||
| 20260503002524 | 16 | 0.0 | 0.0 | 0.00 | 0.00 | 0.00 | 63 | ||
| 20260503001521 | 16 | 0.0 | 0.0 | 0.00 | 0.00 | 0.00 | 65 | ||
| 20260503000525 | 16 | 0.0 | 0.0 | 0.00 | 0.00 | 0.00 | 67 | ||
| 20260502235523 | 15 | 0.0 | 0.0 | 0.00 | 0.00 | 0.00 | 69 | ||
| 20260502234527 | 15 | 0.0 | 0.0 | 0.00 | 0.00 | 0.00 | 71 | ||
| 20260502233523 | 15 | 0.0 | 0.0 | 0.00 | 0.00 | 0.00 | 72 | ||
| 20260502232519 | 14 | 0.0 | 0.0 | 0.00 | 0.00 | 0.00 | 73 | ||
| 20260502231524 | 13 | 0.0 | 0.0 | 0.00 | 0.00 | 0.00 | 75 | ||
| 20260502230522 | 13 | 0.0 | 0.0 | 0.00 | 0.00 | 0.00 | 77 | ||
| 20260502225525 | 13 | 0.0 | 0.0 | 0.00 | 0.00 | 0.00 | 78 | ||
| 20260502224522 | 12 | 0.0 | 0.0 | 0.00 | 0.00 | 0.00 | 80 | ||
| 20260502223527 | 12 | 0.0 | 0.0 | 0.00 | 0.00 | 0.00 | 81 | ||
| 20260502222523 | 12 | 0.0 | 0.0 | 0.00 | 0.00 | 0.00 | 83 | ||
| 20260502221519 | 12 | 0.0 | 0.0 | 0.00 | 0.00 | 0.00 | 84 |